createdAt,value
2022-11-15T00:04:57.747Z,9.57
2022-11-15T00:10:17.484Z,9.27
2022-11-15T00:15:35.758Z,9.22
2022-11-15T00:20:54.996Z,9.3
2022-11-15T00:26:14.753Z,9.21
2022-11-15T00:31:34.329Z,9.1
2022-11-15T00:36:53.526Z,8.97
2022-11-15T00:42:13.039Z,8.8
2022-11-15T00:47:32.371Z,8.63
2022-11-15T00:52:51.485Z,8.52
2022-11-15T00:58:10.746Z,8.18
2022-11-15T01:03:30.098Z,7.89
2022-11-15T01:08:49.202Z,7.71
2022-11-15T01:14:08.847Z,7.7
2022-11-15T01:19:28.080Z,7.9
2022-11-15T01:24:46.432Z,7.76
2022-11-15T01:30:06.076Z,7.56
2022-11-15T01:35:24.911Z,7.25
2022-11-15T01:40:43.939Z,6.9
2022-11-15T01:46:03.121Z,6.73
2022-11-15T01:51:22.385Z,6.61
2022-11-15T01:56:41.144Z,6.68
2022-11-15T02:02:00.563Z,6.76
2022-11-15T02:07:20.180Z,6.63
2022-11-15T02:12:39.366Z,6.44
2022-11-15T02:17:59.533Z,6.4
2022-11-15T02:23:18.665Z,6.56
2022-11-15T02:28:36.990Z,6.74
2022-11-15T02:33:56.987Z,6.87
2022-11-15T02:39:16.332Z,6.77
2022-11-15T02:44:35.566Z,6.53
2022-11-15T02:49:54.822Z,6.26
2022-11-15T02:55:14.551Z,6.13
2022-11-15T03:00:33.256Z,6.18
2022-11-15T03:05:52.205Z,6.19
2022-11-15T03:11:11.312Z,6.13
2022-11-15T03:16:30.986Z,5.97
2022-11-15T03:21:50.861Z,5.75
2022-11-15T03:27:10.000Z,5.69
2022-11-15T03:32:29.524Z,5.5
2022-11-15T03:37:48.565Z,5.43
2022-11-15T03:43:08.034Z,5.36
2022-11-15T03:48:27.407Z,5.27
2022-11-15T03:53:46.450Z,5.2
2022-11-15T03:59:06.007Z,5.12
2022-11-15T04:04:25.618Z,5
2022-11-15T04:09:44.998Z,4.92
2022-11-15T04:15:04.141Z,4.96
2022-11-15T04:20:23.340Z,4.94
2022-11-15T04:25:42.210Z,5.12
2022-11-15T04:31:01.692Z,5.03
2022-11-15T04:36:21.306Z,4.89
2022-11-15T04:41:40.690Z,4.71
2022-11-15T04:47:00.330Z,4.48
2022-11-15T04:52:19.543Z,4.38
2022-11-15T04:58:53.956Z,4.23
2022-11-15T05:02:59.044Z,4.11
2022-11-15T05:08:17.999Z,4.1
2022-11-15T05:13:37.295Z,4.08
2022-11-15T05:18:56.798Z,4.04
2022-11-15T05:24:15.601Z,3.99
2022-11-15T05:29:34.816Z,3.9
2022-11-15T05:34:54.327Z,3.7
2022-11-15T05:40:13.959Z,3.58
2022-11-15T05:45:33.028Z,3.54
2022-11-15T05:50:52.769Z,3.59
2022-11-15T05:56:11.819Z,4.06
2022-11-15T06:01:31.440Z,4.28
2022-11-15T06:06:51.034Z,4.21
2022-11-15T06:12:10.128Z,4.44
2022-11-15T06:17:29.212Z,4.51
2022-11-15T06:22:48.747Z,4.64
2022-11-15T06:28:08.252Z,4.54
2022-11-15T06:33:27.603Z,4.55
2022-11-15T06:38:46.593Z,4.44
2022-11-15T06:44:05.719Z,4.34
2022-11-15T06:49:24.808Z,4.51
2022-11-15T06:54:43.930Z,4.67
2022-11-15T07:00:03.554Z,4.71
2022-11-15T07:05:23.342Z,4.54
2022-11-15T07:10:42.934Z,4.73
2022-11-15T07:16:02.004Z,5.16
2022-11-15T07:21:26.315Z,5.55
2022-11-15T07:26:41.156Z,5.99
2022-11-15T07:32:00.505Z,6.46
2022-11-15T07:37:19.511Z,6.71
2022-11-15T07:42:39.128Z,6.61
2022-11-15T07:47:58.336Z,6.61
2022-11-15T07:53:17.912Z,6.68
2022-11-15T07:58:37.381Z,6.76
2022-11-15T08:03:56.287Z,6.88
2022-11-15T08:09:15.863Z,7.16
2022-11-15T08:14:35.755Z,7.7
2022-11-15T08:19:54.393Z,8.04
2022-11-15T08:25:13.646Z,8.35
2022-11-15T08:33:46.704Z,8.82
2022-11-15T08:41:10.816Z,9.51
2022-11-15T08:46:29.591Z,9.82
2022-11-15T08:51:48.493Z,10.28
2022-11-15T08:57:07.860Z,10.54
2022-11-15T09:02:27.379Z,10.61
2022-11-15T09:07:46.497Z,10.95
2022-11-15T09:13:05.215Z,11.55
2022-11-15T09:21:38.276Z,11.95
2022-11-15T09:23:44.089Z,12.27
2022-11-15T09:29:03.373Z,12.55
2022-11-15T09:34:22.218Z,12.93
2022-11-15T09:39:41.046Z,12.8
2022-11-15T09:45:00.042Z,12.88
2022-11-15T09:50:18.699Z,13.24
2022-11-15T09:55:37.200Z,13.89
2022-11-15T10:00:56.051Z,14.49
2022-11-15T10:06:14.757Z,14.4
2022-11-15T10:11:38.466Z,14.99
2022-11-15T10:16:52.824Z,15.38
2022-11-15T10:22:11.587Z,16.17
2022-11-15T10:27:30.447Z,16.57
2022-11-15T10:32:49.868Z,16.69
2022-11-15T10:38:08.667Z,16.46
2022-11-15T10:43:27.705Z,16.03
2022-11-15T10:48:46.569Z,15.8
2022-11-15T10:54:10.457Z,15.69
2022-11-15T10:59:25.637Z,15.66
2022-11-15T11:04:44.725Z,15.83
2022-11-15T11:10:09.741Z,15.8
2022-11-15T11:15:22.625Z,16.16
2022-11-15T11:20:41.665Z,16.35
2022-11-15T11:26:00.591Z,16.18
2022-11-15T11:31:19.338Z,16.37
2022-11-15T11:36:38.822Z,16.25
2022-11-15T11:41:58.208Z,16.18
2022-11-15T11:47:17.258Z,15.96
2022-11-15T11:52:36.269Z,15.77
2022-11-15T11:57:55.177Z,15.6
2022-11-15T12:03:14.227Z,15.39
2022-11-15T12:08:33.083Z,15.18
2022-11-15T12:13:52.122Z,15.01
2022-11-15T12:19:11.356Z,14.94
2022-11-15T12:24:30.186Z,14.83
2022-11-15T12:29:49.533Z,14.74
2022-11-15T12:36:13.706Z,14.9
2022-11-15T12:40:27.739Z,15.28
2022-11-15T12:45:47.341Z,15.7
2022-11-15T12:51:07.022Z,15.93
2022-11-15T12:56:25.869Z,15.99
2022-11-15T13:01:45.362Z,15.86
2022-11-15T13:07:04.311Z,15.82
2022-11-15T13:12:23.588Z,15.76
2022-11-15T13:17:43.805Z,15.77
2022-11-15T13:23:02.689Z,15.79
2022-11-15T13:28:21.250Z,15.82
2022-11-15T13:33:40.559Z,15.83
2022-11-15T13:38:59.803Z,15.8
2022-11-15T13:44:19.483Z,15.85
2022-11-15T13:49:38.789Z,16
2022-11-15T13:54:58.270Z,15.91
2022-11-15T14:00:17.171Z,15.76
2022-11-15T14:05:35.945Z,15.53
2022-11-15T14:10:55.304Z,15.28
2022-11-15T14:16:14.187Z,15.02
2022-11-15T14:21:33.552Z,14.85
2022-11-15T14:26:52.335Z,14.81
2022-11-15T14:32:11.871Z,14.63
2022-11-15T14:37:31.340Z,14.47
2022-11-15T14:42:50.927Z,14.25
2022-11-15T14:48:09.995Z,14.12
2022-11-15T14:53:29.203Z,13.98
2022-11-15T14:58:48.876Z,13.79
2022-11-15T15:05:13.162Z,13.69
2022-11-15T15:09:28.571Z,13.67
2022-11-15T15:14:47.680Z,13.67
2022-11-15T15:20:06.436Z,13.53
2022-11-15T15:25:24.648Z,13.46
2022-11-15T15:30:43.393Z,13.36
2022-11-15T15:36:02.169Z,13.34
2022-11-15T15:41:22.571Z,13.23
2022-11-15T15:46:41.757Z,13.09
2022-11-15T15:52:01.359Z,12.9
2022-11-15T15:57:19.667Z,12.8
2022-11-15T16:02:40.564Z,12.76
2022-11-15T16:07:58.019Z,12.73
2022-11-15T16:13:17.138Z,12.63
2022-11-15T16:18:36.488Z,12.55
2022-11-15T16:23:56.081Z,12.39
2022-11-15T16:29:15.751Z,12.25
2022-11-15T16:34:38.788Z,12.25
2022-11-15T16:40:03.771Z,12.31
2022-11-15T16:40:59.053Z,12.41
2022-11-15T16:45:47.834Z,12.34
2022-11-15T16:51:06.570Z,12.39
2022-11-15T16:56:26.274Z,12.39
2022-11-15T17:01:45.042Z,12.29
2022-11-15T17:07:04.093Z,12.25
2022-11-15T17:12:23.495Z,12.34
2022-11-15T17:17:43.565Z,12.44
2022-11-15T17:23:02.420Z,12.41
2022-11-15T17:28:21.463Z,12.34
2022-11-15T17:33:41.023Z,11.97
2022-11-15T17:39:00.412Z,11.65
2022-11-15T17:44:19.521Z,11.74
2022-11-15T17:49:38.983Z,12
2022-11-15T17:55:09.660Z,12.04
2022-11-15T18:00:18.234Z,12.01
2022-11-15T18:05:37.898Z,12
2022-11-15T18:10:56.786Z,11.9
2022-11-15T18:16:15.818Z,11.79
2022-11-15T18:21:34.630Z,11.74
2022-11-15T18:26:53.795Z,11.84
2022-11-15T18:32:13.477Z,11.84
2022-11-15T18:37:32.521Z,11.9
2022-11-15T18:42:51.821Z,11.9
2022-11-15T18:48:11.150Z,11.86
2022-11-15T18:53:30.304Z,11.77
2022-11-15T18:58:49.170Z,11.6
2022-11-15T19:04:08.685Z,11.63
2022-11-15T19:09:28.408Z,11.65
2022-11-15T19:14:48.182Z,11.63
2022-11-15T19:20:07.438Z,11.63
2022-11-15T19:25:26.993Z,11.65
2022-11-15T19:30:46.612Z,11.58
2022-11-15T19:36:05.582Z,11.52
2022-11-15T19:41:24.504Z,11.53
2022-11-15T19:46:43.807Z,11.5
2022-11-15T19:52:02.628Z,11.52
2022-11-15T19:57:21.655Z,11.53
2022-11-15T20:02:41.219Z,11.53
2022-11-15T20:08:00.750Z,11.46
2022-11-15T20:13:19.703Z,11.25
2022-11-15T20:18:48.182Z,11.09
2022-11-15T20:23:58.266Z,11.02
2022-11-15T20:29:17.411Z,11.11
2022-11-15T20:34:36.712Z,11.11
2022-11-15T20:39:56.022Z,11.22
2022-11-15T20:45:15.205Z,11.28
2022-11-15T20:50:42.430Z,11.29
2022-11-15T20:55:53.464Z,11.23
2022-11-15T21:01:12.672Z,11.16
2022-11-15T21:06:32.320Z,11.18
2022-11-15T21:12:00.347Z,11.21
2022-11-15T21:17:10.360Z,11.18
2022-11-15T21:22:29.356Z,11.23
2022-11-15T21:27:48.185Z,11.28
2022-11-15T21:33:07.307Z,11.33
2022-11-15T21:38:27.135Z,11.3
2022-11-15T21:43:45.971Z,11.23
2022-11-15T21:49:05.625Z,11.25
2022-11-15T21:54:24.433Z,11.21
2022-11-15T21:59:43.991Z,11.02
2022-11-15T22:05:02.856Z,10.78
2022-11-15T22:10:22.483Z,10.63
2022-11-15T22:15:42.222Z,10.75
2022-11-15T22:21:01.909Z,10.9
2022-11-15T22:26:23.636Z,10.84
2022-11-15T22:31:41.058Z,10.85
2022-11-15T22:37:19.513Z,10.85
2022-11-15T22:42:23.594Z,10.7
2022-11-15T22:47:38.430Z,10.65
2022-11-15T22:52:57.991Z,10.65
2022-11-15T22:58:16.769Z,10.74
2022-11-15T23:03:36.083Z,10.82
2022-11-15T23:08:55.358Z,10.85
2022-11-15T23:14:14.201Z,10.85
2022-11-15T23:19:33.411Z,10.8
2022-11-15T23:24:53.018Z,10.64
2022-11-15T23:30:12.508Z,10.47
2022-11-15T23:35:31.398Z,10.29
2022-11-15T23:40:50.912Z,10.12
2022-11-15T23:46:18.061Z,10.05
2022-11-15T23:51:28.946Z,10
2022-11-15T23:56:57.353Z,9.91
